Time;durP1;ratioP1;P1;durP2;ratioP2;P2;SDS_P1;SDS_P2;PMS_P1;PMS_P2;Temp;Humidity;BMP_temperature;BMP_pressure;BME280_temperature;BME280_humidity;BME280_pressure;Samples;Min_cycle;Max_cycle;Signal;HPM_P1;HPM_P2
2021/06/01 00:01:30;;;;;;;10.08;5.70;;;;;;;7.40;95.23;99522.50;1778906;79;20897;-74
2021/06/01 00:03:57;;;;;;;13.30;5.55;;;;;;;7.37;95.28;99525.83;1775644;80;20962;-74
2021/06/01 00:06:24;;;;;;;12.47;5.47;;;;;;;7.34;95.35;99525.05;1780561;80;21416;-74
2021/06/01 00:08:51;;;;;;;9.50;5.15;;;;;;;7.29;95.28;99523.20;1778956;80;21033;-74
2021/06/01 00:11:17;;;;;;;12.53;5.53;;;;;;;7.26;95.35;99526.52;1777422;80;21008;-74
2021/06/01 00:13:45;;;;;;;16.93;5.55;;;;;;;7.21;95.35;99523.86;1778301;80;21008;-74
2021/06/01 00:16:12;;;;;;;11.48;4.75;;;;;;;7.18;95.63;99527.17;1779768;80;20921;-75
2021/06/01 00:18:39;;;;;;;14.20;4.90;;;;;;;7.16;95.88;99522.56;1775359;80;21101;-75
2021/06/01 00:21:07;;;;;;;9.33;4.67;;;;;;;7.14;95.90;99524.22;1730977;82;21106;-73
2021/06/01 00:23:37;;;;;;;11.93;5.25;;;;;;;7.11;96.05;99522.08;1713525;82;21093;-74
2021/06/01 00:26:02;;;;;;;15.30;5.42;;;;;;;7.10;96.17;99526.46;1736527;81;21559;-74
2021/06/01 00:28:29;;;;;;;11.12;5.22;;;;;;;7.09;96.43;99526.20;1759567;81;20902;-74
2021/06/01 00:30:55;;;;;;;13.22;5.50;;;;;;;7.06;96.45;99519.41;1756287;80;20994;-74
2021/06/01 00:33:22;;;;;;;11.95;4.95;;;;;;;7.03;96.51;99522.73;1764453;80;21059;-75
2021/06/01 00:35:48;;;;;;;9.93;5.10;;;;;;;7.02;96.64;99520.29;1746857;80;20969;-75
2021/06/01 00:38:14;;;;;;;15.72;5.33;;;;;;;7.01;96.74;99522.20;1744478;81;21005;-75
2021/06/01 00:40:41;;;;;;;13.68;5.30;;;;;;;6.98;96.71;99518.70;1740040;81;21567;-75
2021/06/01 00:43:08;;;;;;;9.53;4.72;;;;;;;6.96;96.66;99514.89;1750504;81;21725;-75
2021/06/01 00:45:35;;;;;;;11.35;5.10;;;;;;;6.92;96.71;99511.70;1734997;81;21138;-75
2021/06/01 00:48:01;;;;;;;10.70;4.85;;;;;;;6.89;96.67;99510.92;1726615;81;21005;-75
2021/06/01 00:50:28;;;;;;;6.90;4.83;;;;;;;6.85;96.67;99509.89;1745884;80;21092;-75
2021/06/01 00:52:55;;;;;;;14.80;5.97;;;;;;;6.82;96.87;99518.66;1753392;80;20905;-75
2021/06/01 00:55:22;;;;;;;10.53;5.97;;;;;;;6.79;97.01;99512.41;1747986;81;21700;-75
2021/06/01 00:57:51;;;;;;;10.45;5.58;;;;;;;6.76;97.11;99514.36;1758213;80;21623;-75
2021/06/01 01:02:46;;;;;;;14.43;5.75;;;;;;;6.75;97.56;99516.28;1749435;81;20909;-75
2021/06/01 01:05:15;;;;;;;14.03;4.87;;;;;;;6.73;97.57;99514.39;1717525;82;20952;-76
2021/06/01 01:07:58;;;;;;;9.43;5.30;;;;;;;6.70;97.70;99514.97;1741340;81;20940;-75
2021/06/01 01:10:16;;;;;;;14.30;6.00;;;;;;;6.71;97.97;99517.15;1718931;81;21101;-75
2021/06/01 01:13:00;;;;;;;11.78;5.37;;;;;;;6.73;98.23;99516.30;1719301;80;20905;-76
2021/06/01 01:15:29;;;;;;;9.18;5.22;;;;;;;6.72;98.22;99517.41;1732403;81;21006;-76
2021/06/01 01:17:58;;;;;;;12.73;5.35;;;;;;;6.71;98.20;99515.78;1730199;80;21499;-76
2021/06/01 01:20:39;;;;;;;9.50;5.22;;;;;;;6.69;98.18;99513.90;1728845;81;21017;-76
2021/06/01 01:23:19;;;;;;;14.20;4.85;;;;;;;6.67;98.17;99521.01;1690872;82;21645;-74
2021/06/01 01:26:17;;;;;;;15.65;5.33;;;;;;;6.62;98.19;99514.25;1728551;82;21151;-74
2021/06/01 01:29:14;;;;;;;9.30;5.53;;;;;;;6.58;98.03;99524.11;1776505;79;21341;-74
2021/06/01 01:31:50;;;;;;;11.80;5.58;;;;;;;6.51;97.90;99521.73;1755054;81;20941;-74
2021/06/01 01:34:18;;;;;;;9.03;5.37;;;;;;;6.46;98.16;99526.42;1753829;81;20887;-74
2021/06/01 01:36:45;;;;;;;11.70;5.30;;;;;;;6.42;98.39;99527.55;1765548;81;21516;-74
2021/06/01 01:39:11;;;;;;;10.65;5.78;;;;;;;6.43;98.58;99531.09;1751037;81;20957;-74
2021/06/01 01:41:38;;;;;;;9.18;5.12;;;;;;;6.42;98.73;99528.91;1747669;81;20886;-74
2021/06/01 01:44:09;;;;;;;10.65;5.25;;;;;;;6.42;98.92;99525.38;1751760;81;20933;-74
2021/06/01 01:49:19;;;;;;;9.80;5.50;;;;;;;6.42;99.14;99531.64;1763690;81;21085;-74
2021/06/01 01:51:48;;;;;;;11.08;5.10;;;;;;;6.40;99.08;99525.66;1757627;81;20981;-74
2021/06/01 01:54:17;;;;;;;12.20;5.42;;;;;;;6.37;99.12;99523.52;1751212;81;21005;-74
2021/06/01 01:56:49;;;;;;;11.20;5.25;;;;;;;6.36;99.14;99532.80;1749090;81;21738;-74
2021/06/01 01:59:21;;;;;;;9.48;5.50;;;;;;;6.34;99.16;99528.76;1762841;81;20986;-74
2021/06/01 02:01:50;;;;;;;8.30;5.25;;;;;;;6.31;99.15;99532.06;1716319;82;21837;-74
2021/06/01 02:04:18;;;;;;;9.38;5.70;;;;;;;6.29;99.09;99532.34;1725787;82;20886;-74
2021/06/01 02:06:46;;;;;;;12.33;5.50;;;;;;;6.27;99.34;99528.55;1706140;82;20938;-74
2021/06/01 02:09:13;;;;;;;11.20;5.12;;;;;;;6.26;99.48;99532.38;1727443;81;20978;-74
2021/06/01 02:11:40;;;;;;;10.88;5.37;;;;;;;6.27;99.64;99522.28;1716220;82;21030;-74
2021/06/01 02:14:06;;;;;;;10.20;5.92;;;;;;;6.26;99.85;99525.56;1732233;82;21111;-74
2021/06/01 02:16:42;;;;;;;14.38;5.95;;;;;;;6.27;99.93;99520.92;1728669;82;21056;-75
2021/06/01 02:19:11;;;;;;;14.28;5.95;;;;;;;6.27;100.00;99521.73;1733920;82;20993;-75
2021/06/01 02:24:39;;;;;;;13.18;5.87;;;;;;;6.31;100.00;99523.33;1754010;81;21053;-75
2021/06/01 02:27:26;;;;;;;11.90;5.97;;;;;;;6.33;100.00;99525.77;1791401;78;21147;-72
2021/06/01 02:30:12;;;;;;;14.35;6.30;;;;;;;6.35;100.00;99528.47;1768632;80;21631;-76
2021/06/01 02:32:51;;;;;;;16.60;5.72;;;;;;;6.38;100.00;99531.95;1743847;80;21001;-76
2021/06/01 02:35:22;;;;;;;9.55;5.72;;;;;;;6.40;100.00;99534.39;1741461;80;21021;-75
2021/06/01 02:37:50;;;;;;;20.20;5.70;;;;;;;6.42;100.00;99529.47;1738501;81;21021;-75
2021/06/01 02:40:20;;;;;;;10.80;5.85;;;;;;;6.45;100.00;99531.06;1771256;80;21455;-76
2021/06/01 02:42:46;;;;;;;10.78;5.75;;;;;;;6.47;100.00;99531.59;1777966;79;21040;-75
2021/06/01 02:45:15;;;;;;;10.50;4.90;;;;;;;6.49;100.00;99526.66;1779801;80;22221;-76
2021/06/01 02:47:42;;;;;;;10.75;5.58;;;;;;;6.51;100.00;99533.19;1779820;79;21020;-76
2021/06/01 02:50:12;;;;;;;10.05;5.47;;;;;;;6.54;100.00;99541.61;1772658;79;21080;-76
2021/06/01 02:52:40;;;;;;;8.20;5.47;;;;;;;6.57;100.00;99540.22;1774332;80;21105;-75
2021/06/01 02:55:08;;;;;;;9.73;5.75;;;;;;;6.60;100.00;99540.45;1774887;79;21055;-76
2021/06/01 02:57:34;;;;;;;14.68;5.60;;;;;;;6.65;100.00;99544.22;1761976;79;20966;-75
2021/06/01 03:00:01;;;;;;;14.30;5.67;;;;;;;6.69;100.00;99538.45;1762323;79;20957;-75
2021/06/01 03:02:28;;;;;;;11.05;5.67;;;;;;;6.73;100.00;99545.77;1802501;79;21024;-74
2021/06/01 03:04:55;;;;;;;8.63;5.45;;;;;;;6.78;100.00;99546.26;1791278;79;21074;-74
2021/06/01 03:07:22;;;;;;;12.95;6.25;;;;;;;6.84;100.00;99543.73;1781638;79;21484;-74
2021/06/01 03:09:50;;;;;;;12.98;6.05;;;;;;;6.89;100.00;99546.41;1786433;79;20992;-74
2021/06/01 03:14:53;;;;;;;10.30;5.67;;;;;;;7.01;100.00;99534.48;1729106;79;21570;-75
2021/06/01 03:17:19;;;;;;;16.97;5.70;;;;;;;7.08;100.00;99534.13;1777071;80;21423;-76
2021/06/01 03:19:46;;;;;;;12.10;5.97;;;;;;;7.14;100.00;99536.50;1789225;78;20949;-77
2021/06/01 03:22:12;;;;;;;10.80;5.90;;;;;;;7.19;100.00;99536.44;1784408;79;20925;-75
2021/06/01 03:24:39;;;;;;;12.25;5.65;;;;;;;7.26;100.00;99536.08;1790931;79;21049;-74
2021/06/01 03:27:06;;;;;;;11.38;5.83;;;;;;;7.34;100.00;99538.16;1792058;79;21574;-75
2021/06/01 03:29:32;;;;;;;12.18;5.75;;;;;;;7.42;100.00;99533.39;1789208;78;21131;-75
2021/06/01 03:31:59;;;;;;;12.18;5.35;;;;;;;7.49;100.00;99531.11;1777291;80;21492;-75
2021/06/01 03:34:25;;;;;;;13.40;5.78;;;;;;;7.54;100.00;99539.20;1777939;80;22479;-74
2021/06/01 03:36:52;;;;;;;16.00;5.75;;;;;;;7.60;99.94;99531.19;1776019;79;21000;-75
2021/06/01 03:39:20;;;;;;;10.75;5.97;;;;;;;7.69;99.84;99529.15;1774027;79;20964;-74
2021/06/01 03:41:48;;;;;;;10.75;5.37;;;;;;;7.75;99.84;99530.14;1773182;79;21157;-73
2021/06/01 03:44:15;;;;;;;12.47;5.30;;;;;;;7.81;99.36;99527.59;1775736;80;21000;-75
2021/06/01 03:46:43;;;;;;;16.05;4.95;;;;;;;7.86;99.10;99527.50;1780260;79;21004;-74
2021/06/01 03:49:10;;;;;;;9.53;5.37;;;;;;;7.90;98.86;99528.53;1778889;79;21059;-74
2021/06/01 03:51:36;;;;;;;7.25;5.00;;;;;;;7.97;98.41;99524.61;1776459;79;21535;-73
2021/06/01 03:54:04;;;;;;;14.95;4.78;;;;;;;8.04;98.43;99525.03;1776401;79;21581;-74
2021/06/01 03:56:35;;;;;;;9.90;5.28;;;;;;;8.09;98.16;99523.00;1780277;80;21020;-76
2021/06/01 03:59:02;;;;;;;9.27;5.83;;;;;;;8.15;97.87;99520.43;1778728;80;21547;-76
2021/06/01 04:01:28;;;;;;;13.18;6.28;;;;;;;8.22;97.85;99517.31;1778236;79;21291;-75
2021/06/01 04:03:55;;;;;;;14.25;6.55;;;;;;;8.29;97.75;99521.83;1777004;79;22359;-77
2021/06/01 04:06:21;;;;;;;11.12;6.35;;;;;;;8.38;97.40;99524.72;1779539;79;21589;-80
2021/06/01 04:08:50;;;;;;;13.20;5.78;;;;;;;8.45;97.17;99515.55;1776836;80;21001;-74
2021/06/01 04:11:16;;;;;;;9.13;5.42;;;;;;;8.52;96.61;99518.70;1788294;79;20976;-82
2021/06/01 04:13:43;;;;;;;12.03;5.87;;;;;;;8.59;96.37;99511.72;1795904;79;20969;-79
2021/06/01 04:16:09;;;;;;;14.00;5.45;;;;;;;8.67;95.91;99513.47;1780913;79;21092;-76
2021/06/01 04:18:37;;;;;;;9.03;5.28;;;;;;;8.73;95.59;99514.44;1765522;79;20963;-74
2021/06/01 04:21:05;;;;;;;16.70;5.30;;;;;;;8.79;95.29;99506.37;1734728;82;21056;-78
2021/06/01 04:23:31;;;;;;;9.13;5.35;;;;;;;8.88;95.24;99506.47;1711870;82;21073;-74
2021/06/01 04:25:57;;;;;;;11.10;5.53;;;;;;;8.99;94.84;99514.73;1684482;83;20998;-74
2021/06/01 04:28:24;;;;;;;14.63;5.17;;;;;;;9.08;94.72;99508.79;1701717;83;21568;-75
2021/06/01 04:30:50;;;;;;;8.90;5.10;;;;;;;9.19;94.34;99521.14;1688232;83;21160;-74
2021/06/01 04:33:17;;;;;;;9.38;5.20;;;;;;;9.27;92.76;99514.91;1745871;80;21103;-74
2021/06/01 04:35:44;;;;;;;9.85;5.10;;;;;;;9.33;90.89;99507.95;1713756;82;21071;-73
2021/06/01 04:38:10;;;;;;;8.68;4.90;;;;;;;9.36;90.08;99504.03;1710528;82;21630;-74
2021/06/01 04:40:37;;;;;;;12.85;4.80;;;;;;;9.43;90.02;99508.53;1701303;83;21092;-74
2021/06/01 04:43:03;;;;;;;7.33;4.75;;;;;;;9.54;89.72;99500.89;1745690;80;21030;-77
2021/06/01 04:45:30;;;;;;;9.33;5.05;;;;;;;9.64;88.67;99500.66;1742390;81;21055;-75
2021/06/01 04:47:56;;;;;;;9.58;4.33;;;;;;;9.75;88.37;99507.52;1741809;80;20917;-75
2021/06/01 04:50:23;;;;;;;7.65;4.60;;;;;;;9.82;86.53;99503.75;1710294;82;21021;-75
2021/06/01 04:52:49;;;;;;;9.90;4.83;;;;;;;9.87;85.97;99509.11;1683190;84;21152;-75
2021/06/01 04:55:16;;;;;;;9.08;5.05;;;;;;;9.95;85.01;99513.03;1690941;83;21125;-74
2021/06/01 04:57:42;;;;;;;10.13;4.72;;;;;;;10.01;83.64;99514.53;1745957;80;21519;-75
2021/06/01 05:00:10;;;;;;;8.08;4.40;;;;;;;10.08;84.23;99505.86;1745430;81;21020;-75
2021/06/01 05:02:36;;;;;;;6.42;4.25;;;;;;;10.18;84.25;99512.45;1742655;79;21036;-71
2021/06/01 05:05:05;;;;;;;6.70;3.60;;;;;;;10.29;82.47;99511.67;1784731;78;21021;-71
2021/06/01 05:07:32;;;;;;;5.90;4.20;;;;;;;10.37;81.72;99517.20;1791231;79;21098;-70
2021/06/01 05:10:01;;;;;;;8.90;3.83;;;;;;;10.40;80.50;99515.77;1777416;79;20902;-71
2021/06/01 05:12:28;;;;;;;4.85;3.83;;;;;;;10.46;80.26;99519.96;1756045;81;20938;-72
2021/06/01 05:14:55;;;;;;;9.38;3.70;;;;;;;10.50;79.85;99520.95;1755818;79;20922;-76
2021/06/01 05:17:23;;;;;;;6.83;3.85;;;;;;;10.55;79.91;99512.58;1733802;80;21559;-74
2021/06/01 05:19:49;;;;;;;4.25;3.00;;;;;;;10.61;78.85;99511.88;1748724;81;21048;-73
2021/06/01 05:22:16;;;;;;;4.37;3.62;;;;;;;10.65;78.11;99512.30;1732712;81;20980;-73
2021/06/01 05:24:44;;;;;;;6.97;3.60;;;;;;;10.71;78.64;99511.60;1753866;80;20933;-72
2021/06/01 05:27:10;;;;;;;7.17;3.52;;;;;;;10.80;78.60;99506.39;1747054;80;21061;-73
2021/06/01 05:29:41;;;;;;;6.42;3.40;;;;;;;10.93;78.32;99506.59;1767032;81;20941;-75
2021/06/01 05:34:38;;;;;;;6.83;3.45;;;;;;;11.13;77.13;99508.15;1748100;81;20964;-74
2021/06/01 05:37:04;;;;;;;10.58;4.62;;;;;;;11.25;77.26;99497.34;1738564;80;21057;-73
2021/06/01 05:39:31;;;;;;;4.45;3.20;;;;;;;11.39;77.06;99500.52;1735742;81;20993;-73
2021/06/01 05:41:57;;;;;;;5.42;3.08;;;;;;;11.52;77.31;99502.30;1736401;82;20894;-76
2021/06/01 05:44:24;;;;;;;5.30;3.02;;;;;;;11.64;75.59;99502.44;1781101;80;21203;-75
2021/06/01 05:46:51;;;;;;;9.63;3.10;;;;;;;11.71;73.30;99502.77;1774964;80;21071;-76
2021/06/01 05:49:17;;;;;;;3.70;2.70;;;;;;;11.74;71.61;99498.55;1746982;80;20920;-76
2021/06/01 05:51:44;;;;;;;9.18;3.05;;;;;;;11.74;71.14;99497.18;1776808;80;21063;-76
2021/06/01 05:54:10;;;;;;;3.98;3.20;;;;;;;11.81;71.12;99505.78;1776594;79;21562;-73
2021/06/01 05:56:36;;;;;;;4.83;3.65;;;;;;;11.88;70.80;99501.41;1789821;79;21029;-74
2021/06/01 05:59:04;;;;;;;4.95;2.95;;;;;;;11.92;70.94;99497.44;1792465;78;21029;-76
2021/06/01 06:01:31;;;;;;;5.55;3.35;;;;;;;12.03;70.86;99505.60;1796917;79;21021;-69
2021/06/01 06:03:57;;;;;;;5.55;2.67;;;;;;;12.13;71.55;99504.45;1785978;79;21016;-70
2021/06/01 06:06:23;;;;;;;6.12;2.83;;;;;;;12.20;68.92;99508.29;1777562;79;20888;-71
2021/06/01 06:08:51;;;;;;;5.35;2.15;;;;;;;12.20;66.47;99512.98;1767035;79;21038;-70
2021/06/01 06:11:17;;;;;;;3.40;2.55;;;;;;;12.18;66.75;99510.56;1779323;79;21021;-70
2021/06/01 06:13:43;;;;;;;3.42;2.40;;;;;;;12.28;67.60;99504.47;1761798;79;21159;-71
2021/06/01 06:16:10;;;;;;;4.20;1.92;;;;;;;12.42;67.66;99514.15;1771931;79;21596;-71
2021/06/01 06:18:39;;;;;;;4.25;2.40;;;;;;;12.54;65.58;99524.48;1782533;79;21032;-70
2021/06/01 06:21:06;;;;;;;7.65;2.58;;;;;;;12.52;64.61;99516.55;1774886;78;21080;-70
2021/06/01 06:23:35;;;;;;;3.33;2.27;;;;;;;12.59;66.01;99518.80;1772247;79;21032;-68
2021/06/01 06:26:02;;;;;;;6.62;2.17;;;;;;;12.78;65.38;99520.55;1779867;79;20969;-71
2021/06/01 06:28:30;;;;;;;8.10;2.30;;;;;;;12.94;65.22;99514.48;1770606;79;20983;-70
2021/06/01 06:30:57;;;;;;;6.25;1.92;;;;;;;12.99;63.89;99508.22;1748117;81;21448;-68
2021/06/01 06:33:24;;;;;;;5.62;2.15;;;;;;;13.06;64.58;99503.56;1717488;82;21042;-69
2021/06/01 06:35:51;;;;;;;3.92;1.87;;;;;;;13.19;63.46;99498.41;1752446;81;21076;-68
2021/06/01 06:38:17;;;;;;;4.05;1.98;;;;;;;13.34;63.27;99501.12;1705186;82;20937;-69
2021/06/01 06:40:49;;;;;;;5.22;2.10;;;;;;;13.41;62.23;99498.64;1723278;82;20990;-69
2021/06/01 06:43:12;;;;;;;5.60;2.00;;;;;;;13.46;60.69;99497.87;1750779;80;20977;-69
2021/06/01 06:45:40;;;;;;;2.72;1.75;;;;;;;13.54;61.64;99504.47;1742906;80;21800;-70
2021/06/01 06:48:09;;;;;;;3.45;1.92;;;;;;;13.60;61.16;99507.26;1774798;79;20905;-69
2021/06/01 06:50:37;;;;;;;3.55;1.80;;;;;;;13.63;59.45;99511.30;1781074;79;21583;-68
2021/06/01 06:53:05;;;;;;;2.25;1.95;;;;;;;13.57;60.13;99500.23;1755418;80;21024;-70
2021/06/01 06:55:33;;;;;;;5.08;2.08;;;;;;;13.57;60.74;99497.47;1758396;80;20986;-69
2021/06/01 06:58:00;;;;;;;6.03;2.10;;;;;;;13.63;59.97;99489.23;1730599;81;21092;-68
2021/06/01 07:00:26;;;;;;;5.97;2.12;;;;;;;13.67;60.20;99488.22;1778673;80;20977;-69
2021/06/01 07:02:53;;;;;;;4.65;2.15;;;;;;;13.74;60.33;99499.52;1779189;80;21020;-68
2021/06/01 07:05:20;;;;;;;6.05;2.20;;;;;;;13.90;61.39;99501.05;1768544;80;20997;-68
2021/06/01 07:07:51;;;;;;;7.62;2.35;;;;;;;14.10;59.11;99500.78;1726419;82;21067;-68
2021/06/01 07:10:18;;;;;;;7.30;2.35;;;;;;;14.23;58.78;99504.39;1703960;83;21081;-69
2021/06/01 07:12:45;;;;;;;4.90;1.90;;;;;;;14.34;58.43;99509.14;1710874;83;20950;-69
2021/06/01 07:15:24;;;;;;;3.90;1.98;;;;;;;14.42;58.66;99508.84;1712328;83;21001;-69
2021/06/01 07:17:56;;;;;;;7.83;2.52;;;;;;;14.45;58.18;99507.56;1740107;80;20983;-69
2021/06/01 07:20:25;;;;;;;8.35;2.42;;;;;;;14.42;57.28;99515.18;1724708;81;21028;-69
2021/06/01 07:22:52;;;;;;;6.08;2.30;;;;;;;14.30;57.14;99511.55;1712926;82;21109;-69
2021/06/01 07:25:18;;;;;;;9.73;2.30;;;;;;;14.22;57.47;99513.25;1746870;81;21029;-69
2021/06/01 07:27:45;;;;;;;8.78;2.65;;;;;;;14.12;57.96;99513.09;1783056;79;20914;-69
2021/06/01 07:30:14;;;;;;;3.87;2.10;;;;;;;14.07;58.12;99515.27;1802172;79;21032;-69
2021/06/01 07:32:40;;;;;;;8.20;2.30;;;;;;;13.99;57.29;99512.82;1745361;80;21616;-70
2021/06/01 07:35:08;;;;;;;12.58;2.65;;;;;;;13.91;57.54;99513.70;1728410;82;21046;-69
2021/06/01 07:37:35;;;;;;;7.65;2.20;;;;;;;13.86;57.36;99516.09;1736418;81;20933;-69
2021/06/01 07:40:03;;;;;;;4.78;2.22;;;;;;;13.92;59.74;99515.31;1744152;81;20981;-69
2021/06/01 07:42:30;;;;;;;10.50;2.27;;;;;;;14.16;58.00;99507.13;1727391;82;20929;-69
2021/06/01 07:44:56;;;;;;;11.70;2.37;;;;;;;14.49;57.18;99505.73;1727869;82;20913;-69
2021/06/01 07:47:23;;;;;;;4.42;2.67;;;;;;;14.79;59.07;99497.25;1753000;81;21057;-68
2021/06/01 07:49:49;;;;;;;6.80;2.20;;;;;;;15.08;58.33;99494.80;1710718;82;21040;-68
2021/06/01 07:52:17;;;;;;;4.22;2.50;;;;;;;15.36;56.75;99501.22;1769122;80;21048;-69
2021/06/01 07:54:44;;;;;;;3.70;2.12;;;;;;;15.60;56.83;99493.45;1779590;80;21494;-69
2021/06/01 07:57:10;;;;;;;7.85;2.20;;;;;;;15.81;55.79;99488.54;1773781;80;20945;-68
2021/06/01 07:59:36;;;;;;;2.80;1.95;;;;;;;16.08;57.23;99491.66;1757589;80;21033;-68
2021/06/01 08:02:04;;;;;;;8.20;2.25;;;;;;;16.36;55.63;99484.09;1725971;81;20961;-69
2021/06/01 08:04:31;;;;;;;5.05;1.98;;;;;;;16.46;52.38;99490.50;1726096;81;20988;-68
2021/06/01 08:07:02;;;;;;;6.10;2.15;;;;;;;16.43;53.24;99493.17;1738438;81;20910;-68
2021/06/01 08:09:26;;;;;;;6.97;1.90;;;;;;;16.26;51.44;99491.53;1754739;80;20878;-68
2021/06/01 08:11:52;;;;;;;6.33;1.72;;;;;;;16.11;53.01;99488.98;1739236;82;21085;-69
2021/06/01 08:14:20;;;;;;;7.78;1.72;;;;;;;16.10;53.90;99485.99;1782784;79;20992;-69
2021/06/01 08:16:49;;;;;;;10.50;2.12;;;;;;;16.12;52.68;99491.98;1788866;79;20968;-69
2021/06/01 08:19:20;;;;;;;4.62;1.75;;;;;;;16.01;51.39;99496.42;1756493;79;20930;-69
2021/06/01 08:21:57;;;;;;;3.40;1.65;;;;;;;15.90;50.28;99493.13;1755938;79;20989;-69
2021/06/01 08:24:12;;;;;;;3.35;1.42;;;;;;;15.98;53.07;99483.86;1775862;79;21638;-68
2021/06/01 08:26:39;;;;;;;5.37;1.75;;;;;;;16.15;51.61;99480.20;1774535;79;20948;-68
2021/06/01 08:29:06;;;;;;;3.67;1.57;;;;;;;16.22;52.30;99481.52;1776225;79;21058;-68
2021/06/01 08:31:33;;;;;;;5.33;2.02;;;;;;;16.17;51.37;99475.08;1784537;79;21064;-69
2021/06/01 08:34:01;;;;;;;12.03;4.45;;;;;;;16.08;52.40;99482.77;1779627;79;20969;-67
2021/06/01 08:36:27;;;;;;;15.28;6.08;;;;;;;15.98;52.14;99479.70;1783306;79;21157;-71
2021/06/01 08:38:55;;;;;;;4.72;2.15;;;;;;;15.83;51.85;99479.88;1772215;79;20940;-69
2021/06/01 08:41:21;;;;;;;3.40;2.40;;;;;;;15.63;51.06;99478.91;1774622;80;21000;-68
2021/06/01 08:43:50;;;;;;;3.30;2.22;;;;;;;15.49;52.04;99479.30;1779692;79;21001;-69
2021/06/01 08:46:26;;;;;;;2.22;1.62;;;;;;;15.42;51.51;99482.42;1772551;79;20929;-69
2021/06/01 08:48:52;;;;;;;4.50;1.90;;;;;;;15.61;52.36;99473.50;1776711;79;20963;-69
2021/06/01 08:51:21;;;;;;;4.65;1.40;;;;;;;16.17;55.30;99472.92;1777216;79;20949;-69
2021/06/01 08:53:49;;;;;;;5.17;1.50;;;;;;;16.64;50.89;99469.36;1775472;79;20920;-69
2021/06/01 08:56:16;;;;;;;6.72;1.70;;;;;;;16.67;47.98;99472.84;1780961;79;20924;-69
2021/06/01 08:58:43;;;;;;;5.78;2.22;;;;;;;16.48;49.99;99468.78;1778789;79;20984;-68
2021/06/01 09:01:10;;;;;;;5.25;2.37;;;;;;;16.71;51.80;99473.73;1777227;79;21686;-68
2021/06/01 09:03:49;;;;;;;4.20;1.87;;;;;;;17.23;49.69;99466.44;1777754;79;20858;-68
2021/06/01 09:22:49;;;;;;;6.08;2.12;;;;;;;17.86;46.49;99455.69;1754795;80;20995;-69
2021/06/01 09:25:35;;;;;;;4.47;1.95;;;;;;;18.12;44.83;99459.94;1737392;82;20944;-68
2021/06/01 09:27:59;;;;;;;3.70;2.02;;;;;;;18.08;44.70;99461.84;1717154;82;21538;-68
2021/06/01 09:30:47;;;;;;;2.80;1.62;;;;;;;17.89;45.89;99457.14;1729943;82;21053;-69
2021/06/01 09:33:22;;;;;;;1.80;1.30;;;;;;;17.73;45.30;99460.58;1725131;81;21004;-68
2021/06/01 09:36:00;;;;;;;3.05;1.40;;;;;;;17.35;44.82;99466.87;1742472;81;20993;-69
2021/06/01 09:38:37;;;;;;;4.25;1.60;;;;;;;16.95;45.54;99463.00;1703265;82;20929;-73
2021/06/01 09:41:10;;;;;;;6.15;1.42;;;;;;;16.64;46.99;99472.14;1784746;78;21092;-69
2021/06/01 09:44:01;;;;;;;3.50;1.45;;;;;;;16.39;47.29;99468.14;1798595;78;20854;-69
2021/06/01 09:46:35;;;;;;;3.62;1.60;;;;;;;16.18;46.71;99473.11;1760648;80;21076;-69
2021/06/01 09:49:18;;;;;;;5.60;1.90;;;;;;;15.86;47.10;99469.48;1779683;79;20989;-68
2021/06/01 09:51:58;;;;;;;2.95;1.50;;;;;;;15.63;49.03;99470.61;1759330;81;20906;-69
2021/06/01 09:54:43;;;;;;;4.97;1.98;;;;;;;15.50;49.24;99470.42;1723186;82;21059;-69
2021/06/01 09:57:22;;;;;;;4.33;1.82;;;;;;;15.57;50.21;99466.52;1758196;80;20954;-70
2021/06/01 10:00:17;;;;;;;7.17;1.62;;;;;;;15.77;51.33;99468.83;1722146;82;20888;-69
2021/06/01 10:02:57;;;;;;;2.47;1.60;;;;;;;15.99;50.67;99466.89;1764663;81;21579;-69
2021/06/01 10:05:26;;;;;;;2.05;1.47;;;;;;;16.10;49.81;99475.50;1729407;82;21640;-69
2021/06/01 10:07:57;;;;;;;6.60;1.40;;;;;;;16.08;49.28;99480.00;1779739;78;21099;-68
2021/06/01 10:10:29;;;;;;;4.97;1.70;;;;;;;15.95;48.55;99473.48;1796313;79;20942;-69
2021/06/01 10:12:57;;;;;;;;;;;;;;;15.81;49.24;99475.28;1792529;79;20934;-70
2021/06/01 10:15:27;;;;;;;3.80;1.52;;;;;;;15.66;49.80;99469.91;1798168;78;20449;-70
2021/06/01 10:17:53;;;;;;;2.50;1.40;;;;;;;15.55;49.78;99467.98;1798736;79;20985;-68
2021/06/01 10:20:23;;;;;;;5.53;1.52;;;;;;;15.49;50.63;99468.23;1776643;79;21547;-69
2021/06/01 10:22:50;;;;;;;7.22;2.40;;;;;;;15.67;52.07;99467.95;1767805;79;21591;-68
2021/06/01 10:25:18;;;;;;;2.72;1.47;;;;;;;15.94;51.16;99463.00;1776011;79;21444;-68
2021/06/01 10:27:45;;;;;;;5.60;1.80;;;;;;;16.14;49.33;99461.17;1787374;79;20953;-69
2021/06/01 10:30:13;;;;;;;4.75;1.47;;;;;;;16.21;48.53;99457.75;1792817;78;21567;-70
2021/06/01 10:32:52;;;;;;;4.40;1.40;;;;;;;16.25;47.65;99460.04;1778887;79;21096;-76
2021/06/01 10:35:21;;;;;;;3.47;1.50;;;;;;;16.41;48.04;99456.70;1779283;79;21495;-76
2021/06/01 10:52:04;;;;;;;2.58;1.50;;;;;;;17.25;45.97;99441.11;1746905;79;21508;-77
2021/06/01 10:54:50;;;;;;;4.33;1.57;;;;;;;17.12;47.47;99445.97;1759035;80;21084;-75
2021/06/01 10:57:17;;;;;;;6.15;1.67;;;;;;;17.12;46.24;99447.36;1784365;79;20953;-74
2021/06/01 11:02:25;;;;;;;4.03;1.50;;;;;;;17.13;47.18;99448.38;1724013;82;20937;-70
2021/06/01 11:05:11;;;;;;;4.35;1.42;;;;;;;17.12;45.09;99444.58;1717379;81;20988;-73
2021/06/01 11:08:00;;;;;;;5.90;2.12;;;;;;;17.10;45.37;99444.14;1744809;81;21073;-71
2021/06/01 11:10:43;;;;;;;7.85;1.70;;;;;;;17.15;46.62;99439.70;1711183;82;21069;-67
2021/06/01 11:13:24;;;;;;;6.00;1.75;;;;;;;17.25;44.90;99443.30;1725753;81;21006;-68
2021/06/01 11:15:55;;;;;;;6.40;2.02;;;;;;;17.27;44.75;99440.97;1699631;81;21057;-68
2021/06/01 11:18:32;;;;;;;5.37;1.60;;;;;;;17.29;45.33;99435.05;1719939;81;20998;-68
2021/06/01 11:21:31;;;;;;;4.83;1.77;;;;;;;17.53;45.80;99440.30;1722628;81;21752;-68
2021/06/01 11:33:04;;;;;;;5.45;1.87;;;;;;;17.54;43.53;99436.95;1741696;81;20969;-76
2021/06/01 11:35:32;;;;;;;3.47;1.70;;;;;;;17.34;43.44;99429.99;1726625;81;21650;-72
2021/06/01 11:43:33;;;;;;;1.47;1.20;;;;;;;17.34;43.59;99441.67;1746364;80;21001;-83
2021/06/01 11:46:22;;;;;;;3.27;1.50;;;;;;;17.25;42.98;99439.14;1745261;81;20970;-76
2021/06/01 11:51:23;;;;;;;4.90;1.25;;;;;;;17.53;42.53;99428.40;1772100;79;21016;-76
2021/06/01 11:54:04;;;;;;;9.53;1.62;;;;;;;17.79;43.28;99428.58;1751139;80;21005;-72
2021/06/01 11:56:45;;;;;;;5.53;1.10;;;;;;;18.06;42.94;99427.48;1765637;81;20981;-70
2021/06/01 12:02:03;;;;;;;2.92;1.20;;;;;;;18.33;40.03;99421.44;1759281;80;21587;-68
2021/06/01 12:21:00;;;;;;;3.10;1.12;;;;;;;18.01;40.71;99429.77;1809400;79;20996;-68
2021/06/01 12:23:37;;;;;;;4.70;1.25;;;;;;;17.95;40.23;99421.52;1777125;79;20893;-69
2021/06/01 12:26:25;;;;;;;6.60;1.27;;;;;;;17.96;41.56;99416.98;1792350;79;20861;-69
2021/06/01 12:43:44;;;;;;;3.40;1.40;;;;;;;17.51;41.01;99416.28;1804964;79;20973;-69
2021/06/01 13:12:49;;;;;;;2.62;1.20;;;;;;;17.24;42.22;99409.78;1720867;82;21148;-69
2021/06/01 13:46:31;;;;;;;1.47;1.00;;;;;;;16.77;42.15;99423.76;1758437;79;21107;-69
2021/06/01 13:49:03;;;;;;;3.22;1.40;;;;;;;16.60;41.73;99435.22;1797616;79;21559;-68
2021/06/01 13:51:39;;;;;;;3.50;1.35;;;;;;;16.50;42.28;99432.40;1792846;79;21335;-68
2021/06/01 13:56:45;;;;;;;3.40;1.57;;;;;;;16.50;43.30;99431.82;1737447;82;21041;-69
2021/06/01 13:59:40;;;;;;;1.37;1.20;;;;;;;16.69;43.21;99428.36;1741023;81;21018;-69
2021/06/01 14:10:17;;;;;;;4.03;1.30;;;;;;;17.08;40.48;99427.86;1739492;81;20992;-70
2021/06/01 14:31:26;;;;;;;5.70;1.62;;;;;;;16.80;42.71;99433.55;1765562;80;20958;-70
2021/06/01 15:09:39;;;;;;;3.95;1.55;;;;;;;15.89;43.93;99430.61;1788254;78;20972;-69
2021/06/01 15:23:55;;;;;;;9.88;1.45;;;;;;;15.56;44.37;99435.81;1764049;80;21528;-69
2021/06/01 16:13:26;;;;;;;8.75;2.02;;;;;;;15.08;48.50;99433.98;1875745;76;20867;-69
2021/06/01 16:21:39;;;;;;;3.98;1.65;;;;;;;15.11;47.91;99443.77;1847814;76;20938;-69
2021/06/01 16:29:48;;;;;;;3.08;1.62;;;;;;;14.82;47.72;99442.67;1883892;76;21022;-69
2021/06/01 16:43:33;;;;;;;7.50;1.62;;;;;;;14.68;48.82;99447.73;1845023;77;21071;-69
2021/06/01 17:05:03;;;;;;;6.83;3.05;;;;;;;14.24;49.81;99449.41;1843206;77;20935;-69
2021/06/01 17:07:40;;;;;;;4.22;2.10;;;;;;;14.21;49.81;99449.52;1839338;77;21062;-69